sensor_id;sensor_type;location;lat;lon;timestamp;temperature;humidity
27224;DHT22;14965;50.660;13.226;2023-03-29T00:00:41;0.20;99.90
27224;DHT22;14965;50.660;13.226;2023-03-29T00:03:07;0.20;99.90
27224;DHT22;14965;50.660;13.226;2023-03-29T00:05:33;0.10;99.90
27224;DHT22;14965;50.660;13.226;2023-03-29T00:08:00;0.10;99.90
27224;DHT22;14965;50.660;13.226;2023-03-29T00:10:27;0.00;99.90
27224;DHT22;14965;50.660;13.226;2023-03-29T00:12:54;0.00;99.90
27224;DHT22;14965;50.660;13.226;2023-03-29T00:15:21;0.00;99.90
27224;DHT22;14965;50.660;13.226;2023-03-29T00:17:47;0.00;99.90
27224;DHT22;14965;50.660;13.226;2023-03-29T00:20:14;0.00;99.90
27224;DHT22;14965;50.660;13.226;2023-03-29T00:22:41;0.00;99.90
27224;DHT22;14965;50.660;13.226;2023-03-29T00:25:08;0.00;99.90
27224;DHT22;14965;50.660;13.226;2023-03-29T00:27:37;0.00;99.90
27224;DHT22;14965;50.660;13.226;2023-03-29T00:30:05;0.00;99.90
27224;DHT22;14965;50.660;13.226;2023-03-29T00:32:33;0.00;99.90
27224;DHT22;14965;50.660;13.226;2023-03-29T00:35:00;0.00;99.90
27224;DHT22;14965;50.660;13.226;2023-03-29T00:37:27;0.00;99.90
27224;DHT22;14965;50.660;13.226;2023-03-29T00:39:53;0.10;99.90
27224;DHT22;14965;50.660;13.226;2023-03-29T00:42:19;0.10;99.90
27224;DHT22;14965;50.660;13.226;2023-03-29T00:44:58;0.10;99.90
27224;DHT22;14965;50.660;13.226;2023-03-29T00:47:31;0.10;99.90
27224;DHT22;14965;50.660;13.226;2023-03-29T00:50:06;0.10;99.90
27224;DHT22;14965;50.660;13.226;2023-03-29T00:52:38;0.00;99.90
27224;DHT22;14965;50.660;13.226;2023-03-29T00:55:11;0.10;99.90
27224;DHT22;14965;50.660;13.226;2023-03-29T00:57:41;0.10;99.90
27224;DHT22;14965;50.660;13.226;2023-03-29T01:00:11;0.10;99.90
27224;DHT22;14965;50.660;13.226;2023-03-29T01:02:41;0.10;99.90
27224;DHT22;14965;50.660;13.226;2023-03-29T01:05:11;0.20;99.90
27224;DHT22;14965;50.660;13.226;2023-03-29T01:07:46;0.30;99.90
27224;DHT22;14965;50.660;13.226;2023-03-29T01:10:22;0.40;99.90
27224;DHT22;14965;50.660;13.226;2023-03-29T01:12:56;0.40;99.90
27224;DHT22;14965;50.660;13.226;2023-03-29T01:15:29;0.50;99.90
27224;DHT22;14965;50.660;13.226;2023-03-29T01:17:56;0.50;99.90
27224;DHT22;14965;50.660;13.226;2023-03-29T01:20:25;0.60;99.90
27224;DHT22;14965;50.660;13.226;2023-03-29T01:23:20;0.70;99.90
27224;DHT22;14965;50.660;13.226;2023-03-29T01:26:02;0.70;99.90
27224;DHT22;14965;50.660;13.226;2023-03-29T01:28:43;0.80;99.90
27224;DHT22;14965;50.660;13.226;2023-03-29T01:31:14;0.90;99.90
27224;DHT22;14965;50.660;13.226;2023-03-29T01:33:50;0.90;99.90
27224;DHT22;14965;50.660;13.226;2023-03-29T01:36:25;0.90;99.90
27224;DHT22;14965;50.660;13.226;2023-03-29T01:38:55;1.00;99.90
27224;DHT22;14965;50.660;13.226;2023-03-29T01:41:24;1.00;99.90
27224;DHT22;14965;50.660;13.226;2023-03-29T01:44:04;1.00;99.90
27224;DHT22;14965;50.660;13.226;2023-03-29T01:46:38;1.00;99.90
27224;DHT22;14965;50.660;13.226;2023-03-29T01:49:13;1.00;99.90
27224;DHT22;14965;50.660;13.226;2023-03-29T01:51:50;1.10;99.90
27224;DHT22;14965;50.660;13.226;2023-03-29T01:54:24;1.10;99.90
27224;DHT22;14965;50.660;13.226;2023-03-29T01:56:54;1.10;99.90
27224;DHT22;14965;50.660;13.226;2023-03-29T01:59:25;1.20;99.90
27224;DHT22;14965;50.660;13.226;2023-03-29T02:01:57;1.30;99.90
27224;DHT22;14965;50.660;13.226;2023-03-29T02:04:29;1.30;99.90
27224;DHT22;14965;50.660;13.226;2023-03-29T02:06:59;1.30;99.90
27224;DHT22;14965;50.660;13.226;2023-03-29T02:09:28;1.30;99.90
27224;DHT22;14965;50.660;13.226;2023-03-29T02:11:56;1.40;99.90
27224;DHT22;14965;50.660;13.226;2023-03-29T02:14:26;1.40;99.90
27224;DHT22;14965;50.660;13.226;2023-03-29T02:16:52;1.40;99.90
27224;DHT22;14965;50.660;13.226;2023-03-29T02:19:19;1.40;99.90
27224;DHT22;14965;50.660;13.226;2023-03-29T02:21:50;1.50;99.90
27224;DHT22;14965;50.660;13.226;2023-03-29T02:24:21;1.50;99.90
27224;DHT22;14965;50.660;13.226;2023-03-29T02:26:49;1.50;99.90
27224;DHT22;14965;50.660;13.226;2023-03-29T02:29:16;1.50;99.90
27224;DHT22;14965;50.660;13.226;2023-03-29T02:31:47;1.50;99.90
27224;DHT22;14965;50.660;13.226;2023-03-29T02:34:21;1.50;99.90
27224;DHT22;14965;50.660;13.226;2023-03-29T02:36:55;1.60;99.90
27224;DHT22;14965;50.660;13.226;2023-03-29T02:39:25;1.60;99.90
27224;DHT22;14965;50.660;13.226;2023-03-29T02:41:53;1.60;99.90
27224;DHT22;14965;50.660;13.226;2023-03-29T02:44:23;1.60;99.90
27224;DHT22;14965;50.660;13.226;2023-03-29T02:46:56;1.70;99.90
27224;DHT22;14965;50.660;13.226;2023-03-29T02:49:26;1.70;99.90
27224;DHT22;14965;50.660;13.226;2023-03-29T02:51:54;1.70;99.90
27224;DHT22;14965;50.660;13.226;2023-03-29T02:54:26;1.80;99.90
27224;DHT22;14965;50.660;13.226;2023-03-29T02:56:54;1.70;99.90
27224;DHT22;14965;50.660;13.226;2023-03-29T02:59:21;1.70;99.90
27224;DHT22;14965;50.660;13.226;2023-03-29T03:01:47;1.70;99.90
27224;DHT22;14965;50.660;13.226;2023-03-29T03:04:15;1.80;99.90
27224;DHT22;14965;50.660;13.226;2023-03-29T03:06:41;1.80;99.90
27224;DHT22;14965;50.660;13.226;2023-03-29T03:09:07;1.70;99.90
27224;DHT22;14965;50.660;13.226;2023-03-29T03:11:34;1.70;99.90
27224;DHT22;14965;50.660;13.226;2023-03-29T03:14:00;1.80;99.90
27224;DHT22;14965;50.660;13.226;2023-03-29T03:16:26;1.80;99.90
27224;DHT22;14965;50.660;13.226;2023-03-29T03:18:53;1.80;99.90
27224;DHT22;14965;50.660;13.226;2023-03-29T03:21:21;1.80;99.90
27224;DHT22;14965;50.660;13.226;2023-03-29T03:24:01;1.80;99.90
27224;DHT22;14965;50.660;13.226;2023-03-29T03:26:28;1.80;99.90
27224;DHT22;14965;50.660;13.226;2023-03-29T03:28:54;1.90;99.90
27224;DHT22;14965;50.660;13.226;2023-03-29T03:31:20;1.90;99.90
27224;DHT22;14965;50.660;13.226;2023-03-29T03:33:46;1.90;99.90
27224;DHT22;14965;50.660;13.226;2023-03-29T03:36:12;1.90;99.90
27224;DHT22;14965;50.660;13.226;2023-03-29T03:38:40;1.90;99.90
27224;DHT22;14965;50.660;13.226;2023-03-29T03:41:06;1.90;99.90
27224;DHT22;14965;50.660;13.226;2023-03-29T03:43:32;2.00;99.90
27224;DHT22;14965;50.660;13.226;2023-03-29T03:45:59;2.00;99.90
27224;DHT22;14965;50.660;13.226;2023-03-29T03:48:26;2.00;99.90
27224;DHT22;14965;50.660;13.226;2023-03-29T03:50:53;2.00;99.90
27224;DHT22;14965;50.660;13.226;2023-03-29T03:53:21;2.10;99.90
27224;DHT22;14965;50.660;13.226;2023-03-29T03:55:51;2.10;99.90
27224;DHT22;14965;50.660;13.226;2023-03-29T03:58:18;2.10;99.90
27224;DHT22;14965;50.660;13.226;2023-03-29T04:00:47;2.10;99.90
27224;DHT22;14965;50.660;13.226;2023-03-29T04:03:14;2.10;99.90
27224;DHT22;14965;50.660;13.226;2023-03-29T04:05:41;2.10;99.90
27224;DHT22;14965;50.660;13.226;2023-03-29T04:08:08;2.10;99.90
27224;DHT22;14965;50.660;13.226;2023-03-29T04:10:35;2.10;99.90
27224;DHT22;14965;50.660;13.226;2023-03-29T04:13:03;2.10;99.90
27224;DHT22;14965;50.660;13.226;2023-03-29T04:15:31;2.10;99.90
27224;DHT22;14965;50.660;13.226;2023-03-29T04:18:14;2.10;99.90
27224;DHT22;14965;50.660;13.226;2023-03-29T04:20:41;2.10;99.90
27224;DHT22;14965;50.660;13.226;2023-03-29T04:23:08;2.10;99.90
27224;DHT22;14965;50.660;13.226;2023-03-29T04:25:34;2.00;99.90
27224;DHT22;14965;50.660;13.226;2023-03-29T04:28:00;2.00;99.90
27224;DHT22;14965;50.660;13.226;2023-03-29T04:30:28;2.00;99.90
27224;DHT22;14965;50.660;13.226;2023-03-29T04:32:54;2.00;99.90
27224;DHT22;14965;50.660;13.226;2023-03-29T04:35:20;2.00;99.90
27224;DHT22;14965;50.660;13.226;2023-03-29T04:37:47;2.00;99.90
27224;DHT22;14965;50.660;13.226;2023-03-29T04:40:13;2.00;99.90
27224;DHT22;14965;50.660;13.226;2023-03-29T04:42:39;2.00;99.90
27224;DHT22;14965;50.660;13.226;2023-03-29T04:45:13;1.90;99.90
27224;DHT22;14965;50.660;13.226;2023-03-29T04:47:39;1.90;99.90
27224;DHT22;14965;50.660;13.226;2023-03-29T04:50:07;1.80;99.90
27224;DHT22;14965;50.660;13.226;2023-03-29T04:52:35;1.80;99.90
27224;DHT22;14965;50.660;13.226;2023-03-29T04:55:03;1.80;99.90
27224;DHT22;14965;50.660;13.226;2023-03-29T04:57:31;1.80;99.90
27224;DHT22;14965;50.660;13.226;2023-03-29T04:59:57;1.90;99.90
27224;DHT22;14965;50.660;13.226;2023-03-29T05:02:25;1.90;99.90
27224;DHT22;14965;50.660;13.226;2023-03-29T05:04:51;1.90;99.90
27224;DHT22;14965;50.660;13.226;2023-03-29T05:07:21;1.90;99.90
27224;DHT22;14965;50.660;13.226;2023-03-29T05:09:47;1.90;99.90
27224;DHT22;14965;50.660;13.226;2023-03-29T05:12:13;1.90;99.90
27224;DHT22;14965;50.660;13.226;2023-03-29T05:14:39;2.00;99.90
27224;DHT22;14965;50.660;13.226;2023-03-29T05:17:05;2.00;99.90
27224;DHT22;14965;50.660;13.226;2023-03-29T05:19:33;2.00;99.90
27224;DHT22;14965;50.660;13.226;2023-03-29T05:21:58;2.00;99.90
27224;DHT22;14965;50.660;13.226;2023-03-29T05:24:24;2.00;99.90
27224;DHT22;14965;50.660;13.226;2023-03-29T05:26:50;2.00;99.90
27224;DHT22;14965;50.660;13.226;2023-03-29T05:29:16;2.10;99.90
27224;DHT22;14965;50.660;13.226;2023-03-29T05:31:43;2.10;99.90
27224;DHT22;14965;50.660;13.226;2023-03-29T05:34:13;2.00;99.90
27224;DHT22;14965;50.660;13.226;2023-03-29T05:36:42;2.10;99.90
27224;DHT22;14965;50.660;13.226;2023-03-29T05:39:08;2.10;99.90
27224;DHT22;14965;50.660;13.226;2023-03-29T05:41:34;2.20;99.90
27224;DHT22;14965;50.660;13.226;2023-03-29T05:44:00;2.20;99.90
27224;DHT22;14965;50.660;13.226;2023-03-29T05:46:26;2.30;99.90
27224;DHT22;14965;50.660;13.226;2023-03-29T05:48:52;2.30;99.90
27224;DHT22;14965;50.660;13.226;2023-03-29T05:51:21;2.20;99.90
27224;DHT22;14965;50.660;13.226;2023-03-29T05:53:48;2.20;99.90
27224;DHT22;14965;50.660;13.226;2023-03-29T05:56:14;2.20;99.90
27224;DHT22;14965;50.660;13.226;2023-03-29T05:58:40;2.20;99.90
27224;DHT22;14965;50.660;13.226;2023-03-29T06:01:26;2.20;99.90
27224;DHT22;14965;50.660;13.226;2023-03-29T06:04:00;2.30;99.90
27224;DHT22;14965;50.660;13.226;2023-03-29T06:06:28;2.30;99.90
27224;DHT22;14965;50.660;13.226;2023-03-29T06:08:58;2.30;99.90
27224;DHT22;14965;50.660;13.226;2023-03-29T06:11:25;2.40;99.90
27224;DHT22;14965;50.660;13.226;2023-03-29T06:13:52;2.30;99.90
27224;DHT22;14965;50.660;13.226;2023-03-29T06:16:24;2.50;99.90
27224;DHT22;14965;50.660;13.226;2023-03-29T06:18:55;2.50;99.90
27224;DHT22;14965;50.660;13.226;2023-03-29T06:21:22;2.60;99.90
27224;DHT22;14965;50.660;13.226;2023-03-29T06:23:49;2.60;99.90
27224;DHT22;14965;50.660;13.226;2023-03-29T06:26:17;2.60;99.90
27224;DHT22;14965;50.660;13.226;2023-03-29T06:28:44;2.60;99.90
27224;DHT22;14965;50.660;13.226;2023-03-29T06:31:10;2.60;99.90
27224;DHT22;14965;50.660;13.226;2023-03-29T06:33:37;2.60;99.90
27224;DHT22;14965;50.660;13.226;2023-03-29T06:36:05;2.60;99.90
27224;DHT22;14965;50.660;13.226;2023-03-29T06:38:32;2.60;99.90
27224;DHT22;14965;50.660;13.226;2023-03-29T06:41:00;2.50;99.90
27224;DHT22;14965;50.660;13.226;2023-03-29T06:43:29;2.60;99.90
27224;DHT22;14965;50.660;13.226;2023-03-29T06:45:57;2.60;99.90
27224;DHT22;14965;50.660;13.226;2023-03-29T06:48:24;2.60;99.90
27224;DHT22;14965;50.660;13.226;2023-03-29T06:51:01;2.60;99.90
27224;DHT22;14965;50.660;13.226;2023-03-29T06:53:31;2.60;99.90
27224;DHT22;14965;50.660;13.226;2023-03-29T06:56:00;2.60;99.90
27224;DHT22;14965;50.660;13.226;2023-03-29T06:59:01;2.60;99.90
27224;DHT22;14965;50.660;13.226;2023-03-29T07:01:28;2.60;99.90
27224;DHT22;14965;50.660;13.226;2023-03-29T07:03:59;2.60;99.90
27224;DHT22;14965;50.660;13.226;2023-03-29T07:06:27;2.60;99.90
27224;DHT22;14965;50.660;13.226;2023-03-29T07:08:53;2.70;99.90
27224;DHT22;14965;50.660;13.226;2023-03-29T07:11:19;2.70;99.90
27224;DHT22;14965;50.660;13.226;2023-03-29T07:13:45;2.80;99.90
27224;DHT22;14965;50.660;13.226;2023-03-29T07:16:13;2.70;99.90
27224;DHT22;14965;50.660;13.226;2023-03-29T07:18:40;2.80;99.90
27224;DHT22;14965;50.660;13.226;2023-03-29T07:21:08;3.00;99.90
27224;DHT22;14965;50.660;13.226;2023-03-29T07:23:35;2.90;99.90
27224;DHT22;14965;50.660;13.226;2023-03-29T07:26:01;2.80;99.90
27224;DHT22;14965;50.660;13.226;2023-03-29T07:28:28;2.80;99.90
27224;DHT22;14965;50.660;13.226;2023-03-29T07:31:01;2.90;99.90
27224;DHT22;14965;50.660;13.226;2023-03-29T07:33:44;2.80;99.90
27224;DHT22;14965;50.660;13.226;2023-03-29T07:36:11;2.80;99.90
27224;DHT22;14965;50.660;13.226;2023-03-29T07:38:38;2.90;99.90
27224;DHT22;14965;50.660;13.226;2023-03-29T07:41:15;2.80;99.90
27224;DHT22;14965;50.660;13.226;2023-03-29T07:43:56;3.00;99.90
27224;DHT22;14965;50.660;13.226;2023-03-29T07:46:38;3.10;99.90
27224;DHT22;14965;50.660;13.226;2023-03-29T07:49:32;3.10;99.90
27224;DHT22;14965;50.660;13.226;2023-03-29T07:52:42;3.10;99.90
27224;DHT22;14965;50.660;13.226;2023-03-29T07:55:16;3.10;99.90
27224;DHT22;14965;50.660;13.226;2023-03-29T07:57:44;3.20;99.90
27224;DHT22;14965;50.660;13.226;2023-03-29T08:00:13;3.20;99.90
27224;DHT22;14965;50.660;13.226;2023-03-29T08:09:49;3.20;99.90
27224;DHT22;14965;50.660;13.226;2023-03-29T08:13:46;3.30;99.90
27224;DHT22;14965;50.660;13.226;2023-03-29T08:16:47;3.30;99.90
27224;DHT22;14965;50.660;13.226;2023-03-29T08:19:15;3.40;99.90
27224;DHT22;14965;50.660;13.226;2023-03-29T08:37:12;3.70;99.90
27224;DHT22;14965;50.660;13.226;2023-03-29T08:39:54;4.00;99.90
27224;DHT22;14965;50.660;13.226;2023-03-29T08:42:39;4.10;99.90
27224;DHT22;14965;50.660;13.226;2023-03-29T08:45:39;4.30;99.90
27224;DHT22;14965;50.660;13.226;2023-03-29T08:48:37;4.40;99.90
27224;DHT22;14965;50.660;13.226;2023-03-29T08:51:16;4.50;99.90
27224;DHT22;14965;50.660;13.226;2023-03-29T08:53:54;4.60;99.90
27224;DHT22;14965;50.660;13.226;2023-03-29T08:56:29;4.60;99.90
27224;DHT22;14965;50.660;13.226;2023-03-29T08:59:00;4.80;99.90
27224;DHT22;14965;50.660;13.226;2023-03-29T09:01:32;4.80;99.90
27224;DHT22;14965;50.660;13.226;2023-03-29T09:04:10;4.80;99.90
27224;DHT22;14965;50.660;13.226;2023-03-29T09:07:01;4.90;99.90
27224;DHT22;14965;50.660;13.226;2023-03-29T09:09:34;4.90;99.90
27224;DHT22;14965;50.660;13.226;2023-03-29T09:12:12;4.90;99.90
27224;DHT22;14965;50.660;13.226;2023-03-29T09:14:57;4.90;99.90
27224;DHT22;14965;50.660;13.226;2023-03-29T09:17:41;5.00;99.90
27224;DHT22;14965;50.660;13.226;2023-03-29T09:20:28;5.00;99.90
27224;DHT22;14965;50.660;13.226;2023-03-29T09:23:18;5.00;99.90
27224;DHT22;14965;50.660;13.226;2023-03-29T09:36:50;5.50;99.90
27224;DHT22;14965;50.660;13.226;2023-03-29T09:39:30;5.80;99.90
27224;DHT22;14965;50.660;13.226;2023-03-29T09:42:14;5.90;99.90
27224;DHT22;14965;50.660;13.226;2023-03-29T09:45:03;6.00;99.90
27224;DHT22;14965;50.660;13.226;2023-03-29T09:47:57;6.10;99.90
27224;DHT22;14965;50.660;13.226;2023-03-29T09:50:50;6.30;99.90
27224;DHT22;14965;50.660;13.226;2023-03-29T09:53:39;6.50;99.90
27224;DHT22;14965;50.660;13.226;2023-03-29T09:56:11;6.50;99.90
27224;DHT22;14965;50.660;13.226;2023-03-29T09:58:47;6.50;99.90
27224;DHT22;14965;50.660;13.226;2023-03-29T10:02:07;6.60;99.90
27224;DHT22;14965;50.660;13.226;2023-03-29T10:04:42;6.60;99.90
27224;DHT22;14965;50.660;13.226;2023-03-29T10:07:46;6.50;99.90
27224;DHT22;14965;50.660;13.226;2023-03-29T10:10:26;6.60;99.90
27224;DHT22;14965;50.660;13.226;2023-03-29T10:19:54;6.80;99.90
27224;DHT22;14965;50.660;13.226;2023-03-29T10:47:24;7.70;99.90
27224;DHT22;14965;50.660;13.226;2023-03-29T10:58:24;8.10;99.90
27224;DHT22;14965;50.660;13.226;2023-03-29T11:01:05;8.20;99.90
27224;DHT22;14965;50.660;13.226;2023-03-29T11:04:11;8.20;99.90
27224;DHT22;14965;50.660;13.226;2023-03-29T11:06:51;8.30;99.90
27224;DHT22;14965;50.660;13.226;2023-03-29T11:09:40;8.40;99.90
27224;DHT22;14965;50.660;13.226;2023-03-29T11:12:30;8.40;99.90
27224;DHT22;14965;50.660;13.226;2023-03-29T11:15:26;8.40;99.90
27224;DHT22;14965;50.660;13.226;2023-03-29T11:18:14;8.30;99.90
27224;DHT22;14965;50.660;13.226;2023-03-29T11:20:59;8.40;99.90
27224;DHT22;14965;50.660;13.226;2023-03-29T11:23:53;8.50;99.90
27224;DHT22;14965;50.660;13.226;2023-03-29T11:26:42;8.60;99.90
27224;DHT22;14965;50.660;13.226;2023-03-29T11:29:26;8.70;99.90
27224;DHT22;14965;50.660;13.226;2023-03-29T11:32:08;8.70;99.90
27224;DHT22;14965;50.660;13.226;2023-03-29T11:34:53;8.70;99.90
27224;DHT22;14965;50.660;13.226;2023-03-29T11:38:04;8.60;99.90
27224;DHT22;14965;50.660;13.226;2023-03-29T11:40:51;8.60;99.90
27224;DHT22;14965;50.660;13.226;2023-03-29T11:43:36;8.70;99.90
27224;DHT22;14965;50.660;13.226;2023-03-29T11:46:16;8.80;99.90
27224;DHT22;14965;50.660;13.226;2023-03-29T11:49:34;9.00;99.90
27224;DHT22;14965;50.660;13.226;2023-03-29T13:40:45;8.90;99.90
27224;DHT22;14965;50.660;13.226;2023-03-29T13:57:44;9.10;99.90
27224;DHT22;14965;50.660;13.226;2023-03-29T14:04:32;8.70;99.90
27224;DHT22;14965;50.660;13.226;2023-03-29T14:07:28;8.60;99.90
27224;DHT22;14965;50.660;13.226;2023-03-29T15:20:04;9.40;99.90
27224;DHT22;14965;50.660;13.226;2023-03-29T15:22:33;9.60;99.90
27224;DHT22;14965;50.660;13.226;2023-03-29T15:24:59;9.60;99.90
27224;DHT22;14965;50.660;13.226;2023-03-29T15:27:26;9.60;99.90
27224;DHT22;14965;50.660;13.226;2023-03-29T15:29:59;9.70;99.90
27224;DHT22;14965;50.660;13.226;2023-03-29T15:32:31;9.70;99.90
27224;DHT22;14965;50.660;13.226;2023-03-29T15:34:59;9.70;99.90
27224;DHT22;14965;50.660;13.226;2023-03-29T15:37:28;9.60;99.90
27224;DHT22;14965;50.660;13.226;2023-03-29T15:39:56;9.60;99.90
27224;DHT22;14965;50.660;13.226;2023-03-29T15:42:22;9.50;99.90
27224;DHT22;14965;50.660;13.226;2023-03-29T15:44:52;9.40;99.90
27224;DHT22;14965;50.660;13.226;2023-03-29T15:47:19;9.40;99.90
27224;DHT22;14965;50.660;13.226;2023-03-29T15:49:46;9.30;99.90
27224;DHT22;14965;50.660;13.226;2023-03-29T15:52:13;9.30;99.90
27224;DHT22;14965;50.660;13.226;2023-03-29T15:54:39;9.30;99.90
27224;DHT22;14965;50.660;13.226;2023-03-29T15:57:08;9.30;99.90
27224;DHT22;14965;50.660;13.226;2023-03-29T15:59:37;9.30;99.90
27224;DHT22;14965;50.660;13.226;2023-03-29T16:02:04;9.30;99.90
27224;DHT22;14965;50.660;13.226;2023-03-29T16:04:30;9.30;99.90
27224;DHT22;14965;50.660;13.226;2023-03-29T16:06:56;9.40;99.90
27224;DHT22;14965;50.660;13.226;2023-03-29T16:09:23;9.40;99.90
27224;DHT22;14965;50.660;13.226;2023-03-29T16:11:49;9.50;99.90
27224;DHT22;14965;50.660;13.226;2023-03-29T16:14:19;9.50;99.90
27224;DHT22;14965;50.660;13.226;2023-03-29T16:16:47;9.50;99.90
27224;DHT22;14965;50.660;13.226;2023-03-29T16:19:13;9.40;99.90
27224;DHT22;14965;50.660;13.226;2023-03-29T16:21:39;9.40;99.90
27224;DHT22;14965;50.660;13.226;2023-03-29T16:24:07;9.30;99.90
27224;DHT22;14965;50.660;13.226;2023-03-29T16:26:39;9.20;99.90
27224;DHT22;14965;50.660;13.226;2023-03-29T16:29:05;9.20;99.90
27224;DHT22;14965;50.660;13.226;2023-03-29T16:31:32;9.10;99.90
27224;DHT22;14965;50.660;13.226;2023-03-29T16:33:58;9.10;99.90
27224;DHT22;14965;50.660;13.226;2023-03-29T16:36:24;9.00;99.90
27224;DHT22;14965;50.660;13.226;2023-03-29T16:38:50;9.00;99.90
27224;DHT22;14965;50.660;13.226;2023-03-29T16:41:16;8.90;99.90
27224;DHT22;14965;50.660;13.226;2023-03-29T16:43:43;8.90;99.90
27224;DHT22;14965;50.660;13.226;2023-03-29T16:46:10;8.80;99.90
27224;DHT22;14965;50.660;13.226;2023-03-29T16:48:39;8.80;99.90
27224;DHT22;14965;50.660;13.226;2023-03-29T16:51:05;8.80;99.90
27224;DHT22;14965;50.660;13.226;2023-03-29T16:53:32;8.70;99.90
27224;DHT22;14965;50.660;13.226;2023-03-29T16:55:59;8.70;99.90
27224;DHT22;14965;50.660;13.226;2023-03-29T16:58:25;8.60;99.90
27224;DHT22;14965;50.660;13.226;2023-03-29T17:00:52;8.60;99.90
27224;DHT22;14965;50.660;13.226;2023-03-29T17:03:19;8.60;99.90
27224;DHT22;14965;50.660;13.226;2023-03-29T17:05:46;8.60;99.90
27224;DHT22;14965;50.660;13.226;2023-03-29T17:08:12;8.50;99.90
27224;DHT22;14965;50.660;13.226;2023-03-29T17:10:38;8.50;99.90
27224;DHT22;14965;50.660;13.226;2023-03-29T17:13:04;8.50;99.90
27224;DHT22;14965;50.660;13.226;2023-03-29T17:15:30;8.40;99.90
27224;DHT22;14965;50.660;13.226;2023-03-29T17:18:01;8.40;99.90
27224;DHT22;14965;50.660;13.226;2023-03-29T17:20:28;8.30;99.90
27224;DHT22;14965;50.660;13.226;2023-03-29T17:22:54;8.30;99.90
27224;DHT22;14965;50.660;13.226;2023-03-29T17:25:20;8.20;99.90
27224;DHT22;14965;50.660;13.226;2023-03-29T17:27:46;8.20;99.90
27224;DHT22;14965;50.660;13.226;2023-03-29T17:30:14;8.10;99.90
27224;DHT22;14965;50.660;13.226;2023-03-29T17:32:40;8.10;99.90
27224;DHT22;14965;50.660;13.226;2023-03-29T17:35:08;8.10;99.90
27224;DHT22;14965;50.660;13.226;2023-03-29T17:37:35;8.00;99.90
27224;DHT22;14965;50.660;13.226;2023-03-29T17:40:01;8.00;99.90
27224;DHT22;14965;50.660;13.226;2023-03-29T17:42:28;7.90;99.90
27224;DHT22;14965;50.660;13.226;2023-03-29T17:44:54;7.90;99.90
27224;DHT22;14965;50.660;13.226;2023-03-29T17:47:20;7.90;99.90
27224;DHT22;14965;50.660;13.226;2023-03-29T17:49:46;7.80;99.90
27224;DHT22;14965;50.660;13.226;2023-03-29T17:52:13;7.80;99.90
27224;DHT22;14965;50.660;13.226;2023-03-29T17:54:39;7.80;99.90
27224;DHT22;14965;50.660;13.226;2023-03-29T17:57:05;7.80;99.90
27224;DHT22;14965;50.660;13.226;2023-03-29T17:59:31;7.80;99.90
27224;DHT22;14965;50.660;13.226;2023-03-29T18:01:57;7.70;99.90
27224;DHT22;14965;50.660;13.226;2023-03-29T18:04:23;7.80;99.90
27224;DHT22;14965;50.660;13.226;2023-03-29T18:06:49;7.80;99.90
27224;DHT22;14965;50.660;13.226;2023-03-29T18:09:18;7.70;99.90
27224;DHT22;14965;50.660;13.226;2023-03-29T18:11:44;7.80;99.90
27224;DHT22;14965;50.660;13.226;2023-03-29T18:14:10;7.70;99.90
27224;DHT22;14965;50.660;13.226;2023-03-29T18:16:36;7.80;99.90
27224;DHT22;14965;50.660;13.226;2023-03-29T18:19:02;7.70;99.90
27224;DHT22;14965;50.660;13.226;2023-03-29T18:21:28;7.70;99.90
27224;DHT22;14965;50.660;13.226;2023-03-29T18:23:54;7.70;99.90
27224;DHT22;14965;50.660;13.226;2023-03-29T18:26:21;7.70;99.90
27224;DHT22;14965;50.660;13.226;2023-03-29T18:28:47;7.60;99.90
27224;DHT22;14965;50.660;13.226;2023-03-29T18:31:14;7.60;99.90
27224;DHT22;14965;50.660;13.226;2023-03-29T18:33:40;7.60;99.90
27224;DHT22;14965;50.660;13.226;2023-03-29T18:36:07;7.50;99.90
27224;DHT22;14965;50.660;13.226;2023-03-29T18:38:34;7.50;99.90
27224;DHT22;14965;50.660;13.226;2023-03-29T18:41:01;7.40;99.90
27224;DHT22;14965;50.660;13.226;2023-03-29T18:43:30;7.40;99.90
27224;DHT22;14965;50.660;13.226;2023-03-29T18:45:57;7.30;99.90
27224;DHT22;14965;50.660;13.226;2023-03-29T18:48:24;7.30;99.90
27224;DHT22;14965;50.660;13.226;2023-03-29T18:50:50;7.30;99.90
27224;DHT22;14965;50.660;13.226;2023-03-29T18:53:16;7.20;99.90
27224;DHT22;14965;50.660;13.226;2023-03-29T18:55:42;7.20;99.90
27224;DHT22;14965;50.660;13.226;2023-03-29T18:58:09;7.20;99.90
27224;DHT22;14965;50.660;13.226;2023-03-29T19:00:37;7.20;99.90
27224;DHT22;14965;50.660;13.226;2023-03-29T19:03:04;7.20;99.90
27224;DHT22;14965;50.660;13.226;2023-03-29T19:05:30;7.20;99.90
27224;DHT22;14965;50.660;13.226;2023-03-29T19:07:56;7.30;99.90
27224;DHT22;14965;50.660;13.226;2023-03-29T19:10:23;7.20;99.90
27224;DHT22;14965;50.660;13.226;2023-03-29T19:12:49;7.20;99.90
27224;DHT22;14965;50.660;13.226;2023-03-29T19:15:15;7.20;99.90
27224;DHT22;14965;50.660;13.226;2023-03-29T19:17:42;7.20;99.90
27224;DHT22;14965;50.660;13.226;2023-03-29T19:20:09;7.20;99.90
27224;DHT22;14965;50.660;13.226;2023-03-29T19:22:36;7.20;99.90
27224;DHT22;14965;50.660;13.226;2023-03-29T19:25:04;7.20;99.90
27224;DHT22;14965;50.660;13.226;2023-03-29T19:27:31;7.20;99.90
27224;DHT22;14965;50.660;13.226;2023-03-29T19:29:57;7.10;99.90
27224;DHT22;14965;50.660;13.226;2023-03-29T19:32:23;7.10;99.90
27224;DHT22;14965;50.660;13.226;2023-03-29T19:34:50;7.10;99.90
27224;DHT22;14965;50.660;13.226;2023-03-29T19:37:16;7.10;99.90
27224;DHT22;14965;50.660;13.226;2023-03-29T19:39:43;7.10;99.90
27224;DHT22;14965;50.660;13.226;2023-03-29T19:42:09;7.00;99.90
27224;DHT22;14965;50.660;13.226;2023-03-29T19:44:35;7.00;99.90
27224;DHT22;14965;50.660;13.226;2023-03-29T19:47:04;7.00;99.90
27224;DHT22;14965;50.660;13.226;2023-03-29T19:49:30;7.00;99.90
27224;DHT22;14965;50.660;13.226;2023-03-29T19:51:58;7.10;99.90
27224;DHT22;14965;50.660;13.226;2023-03-29T19:54:24;7.10;99.90
27224;DHT22;14965;50.660;13.226;2023-03-29T19:56:50;7.10;99.90
27224;DHT22;14965;50.660;13.226;2023-03-29T19:59:16;7.10;99.90
27224;DHT22;14965;50.660;13.226;2023-03-29T20:01:42;7.10;99.90
27224;DHT22;14965;50.660;13.226;2023-03-29T20:04:09;7.10;99.90
27224;DHT22;14965;50.660;13.226;2023-03-29T20:06:35;7.20;99.90
27224;DHT22;14965;50.660;13.226;2023-03-29T20:09:02;7.20;99.90
27224;DHT22;14965;50.660;13.226;2023-03-29T20:11:28;7.20;99.90
27224;DHT22;14965;50.660;13.226;2023-03-29T20:13:54;7.20;99.90
27224;DHT22;14965;50.660;13.226;2023-03-29T20:16:20;7.20;99.90
27224;DHT22;14965;50.660;13.226;2023-03-29T20:18:46;7.20;99.90
27224;DHT22;14965;50.660;13.226;2023-03-29T20:21:13;7.20;99.90
27224;DHT22;14965;50.660;13.226;2023-03-29T20:23:39;7.30;99.90
27224;DHT22;14965;50.660;13.226;2023-03-29T20:26:07;7.30;99.90